Aviation Digital Data Service (ADDS)

Output produced by TAFs form (0752 UTC 25 March 2017)
found at http://www.aviationweather.gov/adds/tafs/
 
METAR text: RJNG 250233Z VRB03KT 9999 FEW030 SCT045 BKN230 11/M06 Q1019 RMK 1CU030 4SC045 A3011
Conditions at: RJNG (GIFU (JASDF) , JP) observed 0233 UTC 25 March 2017
Temperature: 11.0°C (52°F)
Dewpoint: -6.0°C (21°F) [RH = 30%]
Pressure (altimeter): 30.09 inches Hg (1019.0 mb)
Winds: variable direction winds at 3 MPH (3 knots; 1.6 m/s)
Visibility: 6 or more miles (10+ km)
Ceiling: 23000 feet AGL
Clouds: few clouds at 3000 feet AGL
scattered clouds at 4500 feet AGL
broken clouds at 23000 feet AGL
Weather: no significant weather observed at this time